Terminal Aerodrome Forecast
Issued by NWS Blacksburg, VA

Current Version | Previous Version | Text Only | Print | Product List | Glossary Off
Versions: 1 2 3 4 5 6 7 8 9 10 11 12 13 14 15 16 17 18 19 20 21 22 23 24 25 26 27 28 29 30 31 32 33 34 35 36 37 38 39 40 41 42

767
FTUS41 KRNK 290538
TAFBLF
TAF
KBLF 290538Z 2906/3006 24004KT P6SM BKN035
      TEMPO 2907/2909 BKN020
     FM291200 28007KT P6SM SCT030
     FM291700 29010G18KT P6SM SCT150
     FM300000 22004KT P6SM OVC100=

USA.gov is the U.S. government's official web portal to all federal, state and local government web resources and services.